Time;durP1;ratioP1;P1;durP2;ratioP2;P2;SDS_P1;SDS_P2;PMS_P1;PMS_P2;Temp;Humidity;BMP_temperature;BMP_pressure;BME280_temperature;BME280_humidity;BME280_pressure;Samples;Min_cycle;Max_cycle;Signal;HPM_P1;HPM_P2
2021/12/12 00:01:46;;;;;;;29.27;16.50;;;;;;;5.62;77.89;101271.72;5052025;28;20244;-72
2021/12/12 00:04:15;;;;;;;27.37;15.60;;;;;;;5.45;77.91;101272.13;5001449;28;20633;-72
2021/12/12 00:06:49;;;;;;;28.03;16.60;;;;;;;5.13;78.32;101259.66;5000263;28;20189;-70
2021/12/12 00:09:20;;;;;;;29.33;16.83;;;;;;;5.25;77.93;101280.56;5016428;28;20188;-71
2021/12/12 00:11:46;;;;;;;32.80;17.33;;;;;;;5.23;78.11;101276.22;5016057;28;20164;-72
2021/12/12 00:14:19;;;;;;;29.23;17.17;;;;;;;5.50;78.08;101285.25;4999193;28;20231;-72
2021/12/12 00:16:45;;;;;;;33.33;17.40;;;;;;;5.39;78.55;101287.28;5015790;28;20180;-71
2021/12/12 00:19:10;;;;;;;32.73;17.53;;;;;;;5.22;78.39;101280.63;4999394;28;20172;-70
2021/12/12 00:21:38;;;;;;;25.03;16.07;;;;;;;5.24;78.57;101300.00;5016154;28;20241;-71
2021/12/12 00:24:04;;;;;;;34.97;17.33;;;;;;;4.97;79.60;101304.13;5034161;22;20319;-68
2021/12/12 00:26:30;;;;;;;29.67;16.90;;;;;;;5.28;79.38;101295.50;5052880;28;20179;-68
2021/12/12 00:28:55;;;;;;;32.97;17.93;;;;;;;5.26;78.75;101287.59;5054002;28;20200;-67
2021/12/12 00:31:22;;;;;;;32.87;17.83;;;;;;;5.16;79.57;101306.34;5053739;28;20188;-68
2021/12/12 00:33:54;;;;;;;34.03;17.00;;;;;;;5.33;79.50;101310.34;5053708;28;20196;-68
2021/12/12 00:36:20;;;;;;;33.30;18.30;;;;;;;5.30;79.95;101302.50;5053397;28;20166;-68
2021/12/12 00:38:55;;;;;;;31.37;17.43;;;;;;;5.11;80.91;101303.81;5052950;28;20547;-68
2021/12/12 00:41:30;;;;;;;37.37;19.13;;;;;;;5.19;81.33;101323.03;5053713;28;20163;-68
2021/12/12 00:43:58;;;;;;;39.03;19.40;;;;;;;5.27;81.46;101320.22;5035663;28;20721;-69
2021/12/12 00:46:24;;;;;;;35.27;19.23;;;;;;;5.17;81.02;101323.97;5053220;28;20241;-68
2021/12/12 00:48:49;;;;;;;39.20;19.57;;;;;;;4.89;82.45;101329.03;5053203;28;20199;-68
2021/12/12 00:51:18;;;;;;;40.13;20.20;;;;;;;5.22;81.61;101317.69;5053199;28;20666;-69
2021/12/12 00:53:43;;;;;;;39.23;19.97;;;;;;;5.07;81.55;101306.56;5053575;28;20609;-68
2021/12/12 00:56:09;;;;;;;41.17;21.13;;;;;;;5.21;82.23;101325.66;5053610;28;20176;-68
2021/12/12 00:58:35;;;;;;;39.87;20.73;;;;;;;4.99;81.65;101309.41;5056500;28;20187;-68
2021/12/12 01:01:09;;;;;;;40.03;21.37;;;;;;;4.93;83.21;101330.69;5039051;28;20184;-68
2021/12/12 01:03:45;;;;;;;38.80;21.33;;;;;;;4.99;82.65;101342.00;5057413;28;20624;-68
2021/12/12 01:06:12;;;;;;;43.47;22.13;;;;;;;5.04;82.19;101320.75;5057381;28;20165;-68
2021/12/12 01:08:39;;;;;;;40.77;21.80;;;;;;;5.03;82.84;101338.38;5023125;28;20205;-67
2021/12/12 01:11:09;;;;;;;39.90;21.87;;;;;;;5.03;82.88;101343.69;5056948;28;20574;-68
2021/12/12 01:13:36;;;;;;;40.83;21.30;;;;;;;4.93;83.14;101344.78;5056977;28;20562;-69
2021/12/12 01:16:11;;;;;;;43.53;21.87;;;;;;;4.93;83.41;101354.50;5056935;28;20237;-68
2021/12/12 01:18:44;;;;;;;38.20;22.57;;;;;;;4.90;82.41;101330.78;5039035;28;20593;-68
2021/12/12 01:21:19;;;;;;;41.13;21.10;;;;;;;4.70;84.16;101353.19;5056507;28;20175;-68
2021/12/12 01:23:49;;;;;;;45.47;22.00;;;;;;;4.98;83.82;101353.50;5056647;28;20211;-68
2021/12/12 01:26:15;;;;;;;41.73;22.17;;;;;;;4.79;84.03;101343.31;5056604;28;20613;-67
2021/12/12 01:28:43;;;;;;;44.80;23.17;;;;;;;5.28;82.93;101337.84;5056883;28;20203;-68
2021/12/12 01:31:11;;;;;;;50.33;23.07;;;;;;;4.57;83.88;101327.06;5056530;28;20178;-68
2021/12/12 01:33:37;;;;;;;47.93;23.57;;;;;;;4.69;85.24;101348.81;5056562;28;20672;-68
2021/12/12 01:36:23;;;;;;;40.50;21.87;;;;;;;5.09;83.92;101340.03;5056378;28;20207;-69
2021/12/12 01:38:52;;;;;;;47.03;24.57;;;;;;;4.96;83.87;101341.22;5040247;28;20156;-67
2021/12/12 01:41:25;;;;;;;39.23;22.47;;;;;;;4.86;84.26;101352.91;5056809;28;20176;-69
2021/12/12 01:43:54;;;;;;;43.40;21.20;;;;;;;4.46;84.19;101329.91;5038574;28;20211;-68
2021/12/12 01:46:21;;;;;;;46.37;23.30;;;;;;;4.80;84.77;101350.34;5021896;28;20266;-67
2021/12/12 01:49:00;;;;;;;44.20;22.53;;;;;;;5.19;84.27;101349.50;5038229;28;20286;-68
2021/12/12 01:51:28;;;;;;;49.73;23.87;;;;;;;5.33;83.27;101352.72;5056243;28;20165;-67
2021/12/12 01:53:57;;;;;;;54.13;23.93;;;;;;;5.08;84.42;101361.22;5056328;28;20199;-68
2021/12/12 01:56:27;;;;;;;52.33;23.27;;;;;;;4.80;84.81;101374.16;5056222;28;20262;-68
2021/12/12 01:58:58;;;;;;;48.17;23.40;;;;;;;4.74;84.07;101347.84;5056244;28;20209;-68
2021/12/12 02:01:29;;;;;;;50.70;25.57;;;;;;;4.98;84.09;101368.50;5055935;28;20583;-68
2021/12/12 02:04:01;;;;;;;54.37;24.00;;;;;;;4.75;85.63;101376.03;5038600;28;20192;-68
2021/12/12 02:06:27;;;;;;;56.50;25.33;;;;;;;4.88;84.58;101362.53;5055746;28;20582;-68
2021/12/12 02:08:53;;;;;;;52.73;26.67;;;;;;;4.90;84.14;101344.00;5054973;28;20191;-68
2021/12/12 02:11:22;;;;;;;55.83;25.57;;;;;;;4.74;85.02;101366.34;5055619;28;20176;-68
2021/12/12 02:13:50;;;;;;;60.90;27.73;;;;;;;5.05;84.43;101387.75;5055489;28;20195;-67
2021/12/12 02:16:16;;;;;;;58.47;27.07;;;;;;;5.18;83.11;101374.22;5055497;28;20194;-67
2021/12/12 02:18:46;;;;;;;60.30;28.97;;;;;;;4.66;83.90;101369.16;5055494;28;20259;-68
2021/12/12 02:21:24;;;;;;;55.53;27.20;;;;;;;5.06;83.38;101374.50;5055872;28;20164;-68
2021/12/12 02:24:36;;;;;;;61.03;27.07;;;;;;;4.91;84.23;101375.69;5021305;28;20211;-68
2021/12/12 02:35:37;;;;;;;64.37;28.33;;;;;;;4.96;84.04;101378.25;5026662;28;20205;-68
2021/12/12 02:38:04;;;;;;;68.30;27.63;;;;;;;4.96;84.13;101386.19;5055964;28;20164;-68
2021/12/12 02:40:40;;;;;;;63.93;28.60;;;;;;;5.06;84.02;101397.44;5037417;28;20465;-68
2021/12/12 02:43:07;;;;;;;64.37;28.07;;;;;;;5.09;83.43;101379.72;5037701;28;20166;-69
2021/12/12 02:45:35;;;;;;;71.20;29.03;;;;;;;5.25;83.94;101394.38;5056247;28;20206;-68
2021/12/12 02:48:04;;;;;;;75.63;31.90;;;;;;;5.00;84.01;101375.50;5056482;28;20172;-67
2021/12/12 02:50:38;;;;;;;65.73;29.60;;;;;;;5.03;83.09;101377.22;5054948;28;20663;-67
2021/12/12 02:53:08;;;;;;;70.37;31.17;;;;;;;5.11;84.28;101401.72;5055407;28;20170;-67
2021/12/12 02:55:38;;;;;;;75.90;30.17;;;;;;;5.13;83.05;101386.69;5056015;28;20191;-68
2021/12/12 02:58:07;;;;;;;69.97;30.80;;;;;;;5.24;83.51;101395.28;5055136;28;20214;-68
2021/12/12 03:00:38;;;;;;;87.87;32.40;;;;;;;5.43;83.29;101398.38;5054963;28;20537;-68
2021/12/12 03:03:03;;;;;;;77.47;30.73;;;;;;;5.02;83.51;101391.34;5055594;28;20155;-68
2021/12/12 03:05:41;;;;;;;72.23;30.40;;;;;;;5.08;83.95;101404.44;5055012;28;20218;-69
2021/12/12 03:08:06;;;;;;;68.57;28.33;;;;;;;4.83;84.73;101408.47;5054773;28;20156;-69
2021/12/12 03:10:35;;;;;;;75.67;30.10;;;;;;;4.95;84.20;101430.28;5054607;28;20203;-68
2021/12/12 03:13:01;;;;;;;69.63;30.63;;;;;;;5.08;83.32;101414.16;5054827;28;20192;-68
2021/12/12 03:15:30;;;;;;;81.73;31.70;;;;;;;4.78;85.47;101436.78;5054619;28;20195;-68
2021/12/12 03:18:00;;;;;;;66.90;28.73;;;;;;;5.01;84.75;101429.28;5054614;28;20167;-68
2021/12/12 03:20:36;;;;;;;76.23;30.43;;;;;;;5.45;82.52;101420.38;5054731;28;20183;-68
2021/12/12 03:23:19;;;;;;;64.37;29.40;;;;;;;5.11;82.66;101404.38;5054689;28;20196;-67
2021/12/12 03:25:51;;;;;;;66.10;28.73;;;;;;;5.17;83.14;101425.41;5054359;28;20183;-68
2021/12/12 03:28:20;;;;;;;70.40;30.40;;;;;;;5.29;83.40;101425.16;5054840;28;20195;-68
2021/12/12 03:30:48;;;;;;;71.40;30.57;;;;;;;5.17;83.48;101420.09;5036691;28;20188;-68
2021/12/12 03:33:13;;;;;;;83.30;32.83;;;;;;;4.89;83.94;101425.13;5054451;28;20257;-68
2021/12/12 03:35:38;;;;;;;86.53;32.00;;;;;;;4.92;84.06;101429.47;5036816;28;20180;-68
2021/12/12 03:38:05;;;;;;;84.10;31.90;;;;;;;5.04;83.71;101442.44;5054248;28;20317;-68
2021/12/12 03:40:37;;;;;;;77.90;30.07;;;;;;;5.23;82.74;101417.34;5054717;28;20199;-68
2021/12/12 03:43:05;;;;;;;88.07;31.80;;;;;;;5.30;82.58;101416.31;5055158;28;20231;-67
2021/12/12 03:45:31;;;;;;;81.07;32.27;;;;;;;4.85;83.26;101402.28;5054207;28;20202;-68
2021/12/12 03:48:02;;;;;;;85.77;32.23;;;;;;;5.15;84.07;101419.25;5054284;28;20171;-67
2021/12/12 03:50:32;;;;;;;75.97;30.97;;;;;;;5.11;82.81;101404.38;5036301;28;20166;-67
2021/12/12 03:52:57;;;;;;;82.97;30.57;;;;;;;5.29;83.25;101422.50;5054145;28;20189;-69
2021/12/12 03:55:24;;;;;;;101.80;32.87;;;;;;;5.47;82.63;101415.91;5053693;28;20683;-69
2021/12/12 03:57:50;;;;;;;82.10;32.37;;;;;;;5.37;82.73;101416.16;5053639;28;20175;-67
2021/12/12 04:00:24;;;;;;;92.50;32.57;;;;;;;5.46;82.38;101422.13;5053510;28;20184;-67
2021/12/12 04:02:49;;;;;;;86.40;33.00;;;;;;;5.25;82.70;101412.03;5053995;28;20576;-68
2021/12/12 04:05:15;;;;;;;98.83;34.53;;;;;;;5.38;82.21;101416.13;5036034;28;20191;-68
2021/12/12 04:07:40;;;;;;;81.60;33.60;;;;;;;5.37;81.79;101403.81;5035730;28;20176;-67
2021/12/12 04:10:08;;;;;;;85.63;32.43;;;;;;;5.08;82.88;101422.94;5019027;28;20188;-69
2021/12/12 04:12:33;;;;;;;86.27;32.87;;;;;;;5.09;83.24;101419.41;5054133;28;20186;-68
2021/12/12 04:14:59;;;;;;;92.33;32.90;;;;;;;4.91;83.10;101396.84;5053418;28;20191;-68
2021/12/12 04:17:27;;;;;;;90.47;33.37;;;;;;;4.87;84.35;101421.63;5053595;28;20242;-68
2021/12/12 04:19:56;;;;;;;84.53;32.67;;;;;;;4.92;84.32;101435.63;5053680;28;20217;-68
2021/12/12 04:22:22;;;;;;;89.60;32.73;;;;;;;5.08;83.95;101441.47;5053304;28;20182;-67
2021/12/12 04:24:52;;;;;;;92.63;32.57;;;;;;;5.12;83.34;101421.97;5052979;28;20282;-67
2021/12/12 04:27:18;;;;;;;81.83;31.80;;;;;;;5.30;83.20;101442.78;5053367;28;20171;-68
2021/12/12 04:29:46;;;;;;;88.77;31.93;;;;;;;5.22;83.35;101438.56;5053369;28;20609;-68
2021/12/12 04:32:23;;;;;;;85.53;32.20;;;;;;;4.66;84.50;101444.06;5035333;28;20183;-67
2021/12/12 04:34:55;;;;;;;81.60;33.30;;;;;;;5.20;84.23;101457.13;5053308;28;20194;-67
2021/12/12 04:37:22;;;;;;;89.03;33.03;;;;;;;4.73;84.63;101442.19;5053181;28;20305;-68
2021/12/12 04:39:52;;;;;;;101.30;32.50;;;;;;;4.95;84.16;101443.50;5053391;28;20179;-68
2021/12/12 04:42:23;;;;;;;96.40;31.30;;;;;;;5.23;83.80;101457.06;5035081;28;20171;-69
2021/12/12 04:44:52;;;;;;;86.00;33.47;;;;;;;4.78;85.37;101457.94;5053147;28;20559;-68
2021/12/12 04:50:56;;;;;;;98.23;33.27;;;;;;;4.96;85.48;101469.06;5037777;28;20223;-68
2021/12/12 04:53:30;;;;;;;95.93;33.33;;;;;;;4.87;85.25;101455.16;5052866;28;20168;-68
2021/12/12 04:56:06;;;;;;;103.00;33.57;;;;;;;5.12;84.37;101466.97;5053137;28;20647;-68
2021/12/12 04:58:45;;;;;;;90.87;33.30;;;;;;;5.05;84.77;101468.00;5035563;28;20167;-68
2021/12/12 05:01:21;;;;;;;101.10;33.13;;;;;;;5.13;84.27;101458.13;5053260;28;20165;-69
2021/12/12 05:03:58;;;;;;;81.07;29.97;;;;;;;4.99;85.18;101471.66;5035334;28;20201;-67
2021/12/12 05:06:37;;;;;;;78.60;31.10;;;;;;;5.10;84.84;101483.78;5035202;28;20168;-68
2021/12/12 05:09:26;;;;;;;93.93;31.67;;;;;;;4.98;84.91;101461.09;5052870;28;20227;-68
2021/12/12 05:12:03;;;;;;;81.97;28.80;;;;;;;5.19;84.77;101476.53;5053442;28;20190;-68
2021/12/12 05:14:35;;;;;;;93.87;32.23;;;;;;;5.15;83.93;101474.84;5052850;28;20559;-68
2021/12/12 05:17:17;;;;;;;92.07;30.90;;;;;;;5.03;83.97;101453.94;5035909;28;20168;-69
2021/12/12 05:19:49;;;;;;;91.50;31.33;;;;;;;5.26;82.96;101454.34;5035553;28;20149;-68
2021/12/12 05:22:18;;;;;;;91.93;31.20;;;;;;;5.08;83.34;101456.47;5035341;28;20237;-69
2021/12/12 05:24:48;;;;;;;89.63;30.97;;;;;;;5.04;84.09;101471.53;5034830;28;20710;-69
2021/12/12 05:27:15;;;;;;;92.50;30.53;;;;;;;5.22;82.84;101444.72;5035212;28;20164;-68
2021/12/12 05:29:49;;;;;;;96.77;31.87;;;;;;;5.00;83.46;101456.63;5034761;28;20211;-67
2021/12/12 05:32:15;;;;;;;86.87;31.13;;;;;;;5.17;83.90;101477.44;5035208;28;20174;-67
2021/12/12 05:34:48;;;;;;;94.10;30.97;;;;;;;5.57;83.10;101464.25;5035256;28;20187;-68
2021/12/12 05:37:13;;;;;;;91.00;31.30;;;;;;;5.19;82.65;101434.19;5035582;28;20157;-68
2021/12/12 05:39:39;;;;;;;88.13;31.40;;;;;;;5.34;83.12;101446.22;5035710;28;20172;-68
2021/12/12 05:42:05;;;;;;;83.57;31.27;;;;;;;5.09;83.14;101437.94;5035224;28;20180;-68
2021/12/12 05:44:31;;;;;;;89.30;31.00;;;;;;;4.86;84.35;101446.34;5036470;28;20274;-67
2021/12/12 05:47:00;;;;;;;91.10;33.43;;;;;;;5.09;83.82;101445.00;5056872;28;20262;-68
2021/12/12 05:49:25;;;;;;;83.20;32.70;;;;;;;4.79;84.21;101430.59;5056033;28;20701;-68
2021/12/12 05:51:51;;;;;;;90.80;31.60;;;;;;;4.94;83.89;101432.97;5038409;28;20176;-69
2021/12/12 05:54:17;;;;;;;92.70;32.53;;;;;;;5.03;83.41;101438.94;5038237;28;20223;-69
2021/12/12 05:56:42;;;;;;;82.10;31.87;;;;;;;4.84;83.96;101423.47;5056382;28;20172;-68
2021/12/12 05:59:10;;;;;;;84.30;32.20;;;;;;;4.92;84.30;101434.75;5021945;28;20610;-68
2021/12/12 06:01:35;;;;;;;90.77;32.93;;;;;;;4.92;83.25;101426.84;5056379;28;20681;-68
2021/12/12 06:04:01;;;;;;;80.27;33.23;;;;;;;4.77;84.38;101433.28;5038142;28;20191;-68
2021/12/12 06:06:31;;;;;;;77.80;33.27;;;;;;;5.07;83.89;101438.84;5056045;28;20180;-67
2021/12/12 06:08:59;;;;;;;92.47;34.57;;;;;;;4.91;83.57;101451.53;5056747;28;20532;-67
2021/12/12 06:11:27;;;;;;;102.57;34.17;;;;;;;4.89;84.43;101456.00;5037941;28;20174;-68
2021/12/12 06:13:53;;;;;;;87.97;34.63;;;;;;;4.92;84.00;101456.81;5038247;28;20748;-68
2021/12/12 06:16:19;;;;;;;90.47;34.83;;;;;;;5.02;83.78;101446.91;5037979;28;20167;-68
2021/12/12 06:18:56;;;;;;;94.30;35.47;;;;;;;4.88;84.48;101460.41;5038205;28;20258;-67
2021/12/12 06:21:21;;;;;;;98.13;35.57;;;;;;;5.17;84.21;101449.22;5038024;28;20170;-69
2021/12/12 06:23:47;;;;;;;100.93;36.43;;;;;;;4.88;83.96;101441.03;5078909;22;20204;-73
2021/12/12 06:26:12;;;;;;;105.30;36.90;;;;;;;5.31;83.00;101447.16;5053852;28;20172;-72
2021/12/12 06:28:39;;;;;;;96.53;34.90;;;;;;;5.36;82.86;101462.94;5037105;28;20204;-72
2021/12/12 06:31:06;;;;;;;91.77;35.67;;;;;;;5.08;83.43;101457.34;5053919;28;20271;-70
2021/12/12 06:33:32;;;;;;;77.00;32.67;;;;;;;4.94;83.73;101448.84;5053708;28;20671;-72
2021/12/12 06:35:57;;;;;;;88.33;35.70;;;;;;;4.89;83.32;101450.69;5033516;28;20195;-72
2021/12/12 06:38:24;;;;;;;95.03;34.93;;;;;;;5.25;83.06;101463.19;5017597;28;20322;-71
2021/12/12 06:40:49;;;;;;;90.10;35.53;;;;;;;5.38;81.91;101439.09;5050963;28;20266;-72
2021/12/12 06:43:17;;;;;;;89.47;33.20;;;;;;;5.09;82.93;101464.38;5034960;28;20710;-71
2021/12/12 06:45:42;;;;;;;83.10;32.80;;;;;;;4.93;84.12;101479.72;5050944;28;20308;-71
2021/12/12 06:48:10;;;;;;;98.00;33.70;;;;;;;5.41;82.74;101474.31;5033861;28;20193;-71
2021/12/12 06:50:39;;;;;;;101.43;36.53;;;;;;;4.96;82.63;101452.31;5050555;28;20187;-71
2021/12/12 06:53:05;;;;;;;86.83;33.17;;;;;;;5.25;82.85;101468.47;5017346;28;20275;-71
2021/12/12 06:55:31;;;;;;;82.00;32.90;;;;;;;5.34;82.23;101465.63;5049953;28;20282;-72
2021/12/12 06:57:57;;;;;;;81.93;34.23;;;;;;;5.47;82.03;101458.28;5050525;28;20184;-71
2021/12/12 07:00:24;;;;;;;87.17;32.80;;;;;;;5.17;82.67;101462.44;5017287;28;20177;-71
2021/12/12 07:02:50;;;;;;;83.93;33.47;;;;;;;4.83;82.85;101467.56;5034461;28;20259;-72
2021/12/12 07:05:19;;;;;;;86.77;32.77;;;;;;;4.97;84.36;101486.69;5033906;28;20703;-71
2021/12/12 07:07:45;;;;;;;76.53;29.90;;;;;;;4.69;84.01;101475.75;5033808;28;20187;-71
2021/12/12 07:10:12;;;;;;;88.37;33.13;;;;;;;5.05;83.30;101483.00;5033887;28;20665;-71
2021/12/12 07:12:40;;;;;;;79.13;32.20;;;;;;;5.07;82.78;101484.72;5033515;28;20618;-70
2021/12/12 07:15:08;;;;;;;78.57;30.90;;;;;;;5.39;82.55;101488.47;5049681;28;20208;-70
2021/12/12 07:17:34;;;;;;;79.10;31.20;;;;;;;4.89;83.38;101469.22;5016682;28;20187;-71
2021/12/12 07:19:59;;;;;;;79.03;31.27;;;;;;;4.90;82.91;101468.31;5049976;28;20168;-71
2021/12/12 07:22:25;;;;;;;83.43;30.73;;;;;;;5.11;83.04;101477.59;5049466;28;20277;-72
2021/12/12 07:24:51;;;;;;;73.63;30.37;;;;;;;4.94;83.37;101481.44;5049585;28;20710;-72
2021/12/12 07:27:17;;;;;;;74.50;28.33;;;;;;;4.94;83.89;101496.44;5049807;28;20544;-71
2021/12/12 07:29:42;;;;;;;65.23;27.20;;;;;;;4.95;83.65;101480.53;5033225;28;20203;-71
2021/12/12 07:32:08;;;;;;;70.67;27.40;;;;;;;5.25;82.64;101471.13;5049476;28;20180;-72
2021/12/12 07:34:33;;;;;;;82.47;29.70;;;;;;;5.00;83.83;101478.69;5016343;28;20266;-71
2021/12/12 07:37:02;;;;;;;79.43;28.77;;;;;;;5.20;83.67;101496.81;5049343;28;20180;-71
2021/12/12 07:39:29;;;;;;;70.33;26.97;;;;;;;4.91;83.23;101470.94;5049354;28;20232;-71
2021/12/12 07:41:57;;;;;;;66.80;27.60;;;;;;;5.35;83.43;101506.22;5033392;28;20234;-72
2021/12/12 07:44:28;;;;;;;70.70;27.80;;;;;;;5.42;83.23;101504.31;5049469;28;20196;-72
2021/12/12 07:46:54;;;;;;;78.80;26.57;;;;;;;5.25;83.24;101496.72;5035579;28;20164;-71
2021/12/12 07:49:26;;;;;;;67.60;26.60;;;;;;;5.10;84.38;101497.88;5058391;28;20211;-71
2021/12/12 07:51:51;;;;;;;80.20;28.23;;;;;;;5.09;83.86;101482.03;5057806;28;20185;-71
2021/12/12 07:54:17;;;;;;;80.13;28.33;;;;;;;5.26;83.89;101495.81;5036616;28;20683;-72
2021/12/12 07:56:43;;;;;;;70.67;28.20;;;;;;;5.64;82.93;101505.59;5049500;28;20226;-70
2021/12/12 07:59:10;;;;;;;71.07;26.93;;;;;;;5.22;83.84;101499.44;5049343;28;20242;-72
2021/12/12 08:01:37;;;;;;;83.67;29.40;;;;;;;5.07;85.00;101516.47;5016145;28;20184;-71
2021/12/12 08:04:03;;;;;;;82.50;29.23;;;;;;;5.32;84.05;101509.78;5032696;28;20192;-73
2021/12/12 08:06:29;;;;;;;77.97;27.60;;;;;;;5.29;84.43;101517.78;5048320;28;20176;-73
2021/12/12 08:08:55;;;;;;;70.77;27.40;;;;;;;5.21;84.51;101510.91;5016339;28;20215;-72
2021/12/12 08:11:25;;;;;;;80.97;28.70;;;;;;;5.80;82.88;101506.97;5049464;28;20180;-72
2021/12/12 08:13:51;;;;;;;84.43;28.60;;;;;;;5.33;82.31;101469.19;5032266;28;20545;-72
2021/12/12 08:16:18;;;;;;;87.60;28.83;;;;;;;5.72;82.77;101502.78;5032190;28;20249;-72
2021/12/12 08:18:44;;;;;;;71.67;28.80;;;;;;;5.47;83.50;101507.72;5032770;28;20256;-74
2021/12/12 08:21:10;;;;;;;75.23;27.70;;;;;;;5.61;82.78;101500.38;5048801;28;20184;-74
2021/12/12 08:23:36;;;;;;;76.40;28.93;;;;;;;5.86;81.77;101492.72;5032821;28;20185;-73
2021/12/12 08:26:03;;;;;;;89.47;28.43;;;;;;;5.68;81.44;101475.50;5032496;28;20227;-73
2021/12/12 08:28:30;;;;;;;88.80;27.20;;;;;;;5.76;82.50;101510.63;5049006;28;20196;-72
2021/12/12 08:30:55;;;;;;;83.00;27.40;;;;;;;5.50;82.14;101497.06;5032201;28;20230;-72
2021/12/12 08:33:21;;;;;;;77.20;27.53;;;;;;;5.68;82.31;101498.44;5033416;28;20541;-72
2021/12/12 08:35:46;;;;;;;74.23;27.10;;;;;;;5.54;81.83;101481.06;5015428;28;20295;-73
2021/12/12 08:38:14;;;;;;;68.33;25.73;;;;;;;5.47;82.48;101508.59;5033329;28;20179;-73
2021/12/12 08:40:47;;;;;;;79.93;25.57;;;;;;;6.25;81.84;101510.38;5048637;28;20234;-73
2021/12/12 08:43:14;;;;;;;65.63;26.37;;;;;;;5.94;82.40;101514.63;5016070;28;20540;-71
2021/12/12 08:45:44;;;;;;;64.33;25.07;;;;;;;5.85;82.81;101510.41;5049000;28;20188;-74
2021/12/12 08:48:09;;;;;;;67.33;27.60;;;;;;;5.71;82.63;101496.59;5032174;28;20647;-73
2021/12/12 08:50:37;;;;;;;58.87;24.17;;;;;;;6.09;82.78;101521.38;5032398;28;20322;-72
2021/12/12 08:53:04;;;;;;;62.00;24.13;;;;;;;6.06;82.24;101511.72;5032294;28;20306;-74
2021/12/12 08:55:34;;;;;;;61.50;24.90;;;;;;;6.17;81.85;101512.34;5048659;28;20202;-71
2021/12/12 08:58:14;;;;;;;65.10;24.43;;;;;;;5.73;82.94;101507.16;5018301;28;20249;-71
2021/12/12 09:00:43;;;;;;;63.50;23.97;;;;;;;6.21;82.90;101526.38;5051091;28;20153;-72
2021/12/12 09:03:09;;;;;;;69.90;25.60;;;;;;;5.90;82.55;101513.84;5034648;28;20306;-74
2021/12/12 09:05:38;;;;;;;62.13;24.50;;;;;;;6.15;82.40;101505.34;5036413;28;20698;-72
2021/12/12 09:08:07;;;;;;;55.30;25.63;;;;;;;5.77;82.49;101509.72;5037833;28;20180;-70
2021/12/12 09:10:43;;;;;;;59.60;23.37;;;;;;;5.87;82.84;101526.25;5049853;28;20723;-72
2021/12/12 09:13:14;;;;;;;50.77;22.20;;;;;;;6.15;82.93;101513.28;5048602;28;20167;-72
2021/12/12 09:16:00;;;;;;;51.40;22.67;;;;;;;5.91;82.33;101507.63;5048505;28;20225;-72
2021/12/12 09:18:36;;;;;;;57.33;22.87;;;;;;;6.13;82.56;101529.22;5050404;28;20161;-71
2021/12/12 09:21:28;;;;;;;58.43;23.43;;;;;;;6.00;82.44;101521.59;5052537;28;20207;-72
2021/12/12 09:24:06;;;;;;;51.27;21.20;;;;;;;6.09;82.92;101530.22;5052104;28;20207;-72
2021/12/12 09:26:35;;;;;;;50.40;21.50;;;;;;;5.38;83.76;101529.09;5051750;28;20209;-72
2021/12/12 09:29:16;;;;;;;52.87;21.17;;;;;;;6.03;82.95;101537.44;5052164;28;20228;-72
2021/12/12 09:31:49;;;;;;;56.67;22.37;;;;;;;6.03;83.14;101546.25;5035451;28;20169;-72
2021/12/12 09:34:21;;;;;;;51.10;22.73;;;;;;;5.48;83.70;101536.81;5035823;28;20552;-72
2021/12/12 09:36:52;;;;;;;61.43;24.17;;;;;;;5.76;84.42;101555.66;5051678;28;20161;-73
2021/12/12 09:39:26;;;;;;;62.93;23.17;;;;;;;6.09;83.12;101530.22;5035502;28;20207;-71
2021/12/12 09:42:10;;;;;;;55.73;22.97;;;;;;;5.71;82.70;101507.19;5035582;28;20184;-72
2021/12/12 09:44:58;;;;;;;55.23;21.50;;;;;;;5.69;82.40;101519.59;5036522;28;20188;-73
2021/12/12 09:51:15;;;;;;;58.63;23.97;;;;;;;5.56;83.88;101531.34;5036365;28;20180;-72
2021/12/12 09:54:02;;;;;;;64.60;25.10;;;;;;;5.74;83.10;101530.97;5051352;28;20249;-72
2021/12/12 09:56:40;;;;;;;53.70;23.27;;;;;;;5.94;82.60;101527.88;5037408;28;20176;-72
2021/12/12 09:59:48;;;;;;;61.80;24.37;;;;;;;5.82;83.92;101536.97;5051281;28;20531;-73
2021/12/12 10:02:40;;;;;;;58.73;23.30;;;;;;;5.06;84.47;101517.38;5033839;28;20177;-73
2021/12/12 10:05:13;;;;;;;62.80;24.47;;;;;;;5.60;83.27;101511.88;5034834;28;20202;-71
2021/12/12 10:07:50;;;;;;;61.00;23.97;;;;;;;5.41;84.35;101523.72;5051201;28;20161;-71
2021/12/12 10:10:33;;;;;;;71.77;24.63;;;;;;;5.74;83.92;101524.81;5034324;28;20200;-72
2021/12/12 10:13:22;;;;;;;52.33;20.90;;;;;;;4.85;85.92;101528.38;5035647;28;20160;-72
2021/12/12 10:15:56;;;;;;;63.27;25.27;;;;;;;5.10;84.77;101511.13;5034386;28;20196;-73
2021/12/12 10:18:29;;;;;;;65.57;26.33;;;;;;;5.69;84.31;101527.56;5034334;28;20164;-71
2021/12/12 10:21:01;;;;;;;63.27;24.83;;;;;;;5.60;85.42;101541.00;5051029;28;20196;-70
2021/12/12 10:23:44;;;;;;;60.03;24.37;;;;;;;5.13;85.32;101518.13;5050952;28;20668;-72
2021/12/12 10:26:16;;;;;;;58.57;24.90;;;;;;;5.46;84.82;101514.78;5035920;28;20164;-71
2021/12/12 10:28:52;;;;;;;55.63;24.67;;;;;;;4.97;84.77;101491.97;5034508;28;20656;-72
2021/12/12 10:31:21;;;;;;;60.93;24.33;;;;;;;5.26;85.57;101525.81;5050543;28;20247;-70
2021/12/12 10:33:51;;;;;;;60.77;25.07;;;;;;;5.51;84.42;101489.09;5051064;28;20180;-71
2021/12/12 10:36:33;;;;;;;63.70;25.73;;;;;;;5.60;84.73;101503.94;5051046;28;20184;-70
2021/12/12 10:39:09;;;;;;;60.63;24.43;;;;;;;5.67;83.75;101488.75;5051838;28;20160;-71
2021/12/12 10:41:38;;;;;;;55.63;24.03;;;;;;;5.29;85.12;101507.22;5051885;28;20180;-71
2021/12/12 10:44:12;;;;;;;48.90;22.83;;;;;;;5.25;85.39;101515.25;5051173;28;20203;-72
2021/12/12 10:47:09;;;;;;;55.07;21.40;;;;;;;6.12;83.37;101506.28;5034468;28;20164;-70
2021/12/12 10:49:52;;;;;;;50.37;21.63;;;;;;;5.40;85.27;101520.22;5035308;28;20622;-71
2021/12/12 10:52:26;;;;;;;48.10;21.93;;;;;;;5.33;84.57;101495.66;5050207;28;20240;-71
2021/12/12 10:54:55;;;;;;;41.70;18.93;;;;;;;4.58;86.10;101501.50;5034274;28;20199;-71
2021/12/12 10:57:27;;;;;;;54.70;21.50;;;;;;;5.24;86.46;101527.59;5050540;28;20176;-71
2021/12/12 11:00:01;;;;;;;60.70;22.77;;;;;;;5.62;85.08;101504.75;5050537;28;20172;-72
2021/12/12 11:02:32;;;;;;;55.43;23.83;;;;;;;5.08;85.40;101477.66;5041412;28;20171;-72
2021/12/12 11:05:08;;;;;;;58.07;24.93;;;;;;;5.20;85.74;101488.88;5058384;28;20206;-73
2021/12/12 11:07:40;;;;;;;70.00;25.80;;;;;;;5.80;84.02;101474.31;5054939;28;20243;-71
2021/12/12 11:10:23;;;;;;;58.53;23.83;;;;;;;5.18;85.69;101479.19;5049903;28;20200;-72
2021/12/12 11:12:56;;;;;;;65.97;24.87;;;;;;;5.58;85.00;101487.19;5033398;28;20172;-72
2021/12/12 11:15:55;;;;;;;58.07;23.83;;;;;;;5.16;85.95;101481.88;5033302;28;20193;-72
2021/12/12 11:18:51;;;;;;;53.67;21.37;;;;;;;5.06;86.38;101493.56;5049886;28;20200;-72
2021/12/12 11:21:27;;;;;;;55.00;22.87;;;;;;;5.15;85.55;101482.78;5004088;28;20199;-72
2021/12/12 11:24:03;;;;;;;57.00;25.13;;;;;;;5.24;85.27;101489.69;5049597;28;20179;-69
2021/12/12 11:26:41;;;;;;;53.70;23.10;;;;;;;5.33;83.91;101461.25;5049963;28;20620;-72
2021/12/12 11:29:18;;;;;;;45.57;20.37;;;;;;;4.83;84.99;101458.72;5033559;28;20184;-72
2021/12/12 11:31:55;;;;;;;50.00;23.40;;;;;;;5.34;83.88;101449.75;5049679;28;20211;-71
2021/12/12 11:34:21;;;;;;;52.30;22.93;;;;;;;5.21;84.47;101452.69;5033932;28;20223;-72
2021/12/12 11:37:05;;;;;;;50.47;24.17;;;;;;;5.20;85.10;101480.94;5033238;28;20331;-73
2021/12/12 11:39:39;;;;;;;63.30;24.37;;;;;;;4.79;85.54;101459.69;5050469;28;20176;-72
2021/12/12 11:42:11;;;;;;;56.80;24.43;;;;;;;4.98;84.54;101456.66;5033863;28;20532;-72
2021/12/12 11:44:39;;;;;;;43.60;19.50;;;;;;;4.55;85.89;101455.75;5017288;28;20200;-72
2021/12/12 11:47:46;;;;;;;41.47;19.33;;;;;;;4.86;86.28;101470.16;5033721;28;20544;-73
2021/12/12 11:50:23;;;;;;;44.87;21.60;;;;;;;4.78;86.00;101463.25;5045580;28;20219;-73